createdAt,value
2022-11-26T00:02:53.541Z,0.77
2022-11-26T00:08:00.315Z,0.80
2022-11-26T00:13:03.977Z,0.67
2022-11-26T00:18:07.493Z,0.73
2022-11-26T00:23:20.585Z,0.90
2022-11-26T00:28:30.463Z,0.80
2022-11-26T00:33:34.319Z,0.60
2022-11-26T00:38:39.369Z,0.70
2022-11-26T00:43:42.921Z,0.90
2022-11-26T00:48:46.584Z,0.60
2022-11-26T00:53:54.428Z,0.93
2022-11-26T00:58:57.932Z,1.00
2022-11-26T01:04:01.500Z,0.90
2022-11-26T01:09:08.017Z,0.90
2022-11-26T01:14:16.201Z,1.13
2022-11-26T01:19:19.766Z,1.00
2022-11-26T01:24:24.657Z,1.20
2022-11-26T01:29:28.216Z,0.80
2022-11-26T01:34:31.863Z,1.10
2022-11-26T01:39:36.763Z,0.90
2022-11-26T01:44:40.523Z,1.13
2022-11-26T01:50:04.315Z,1.10
2022-11-26T01:55:15.738Z,1.00
2022-11-26T02:00:19.643Z,1.03
2022-11-26T02:05:27.662Z,0.80
2022-11-26T02:10:32.718Z,1.00
2022-11-26T02:15:44.507Z,1.10
2022-11-26T02:20:54.677Z,1.10
2022-11-26T02:26:30.966Z,1.07
2022-11-26T02:31:42.960Z,1.00
2022-11-26T02:36:52.884Z,1.00
2022-11-26T02:41:58.167Z,1.10
2022-11-26T02:47:06.983Z,1.00
2022-11-26T02:52:12.455Z,1.10
2022-11-26T02:57:19.626Z,1.20
2022-11-26T03:02:30.055Z,0.97
2022-11-26T03:07:35.283Z,1.13
2022-11-26T03:12:38.861Z,1.30
2022-11-26T03:17:43.808Z,1.20
2022-11-26T03:22:47.410Z,1.17
2022-11-26T03:27:50.921Z,0.80
2022-11-26T03:32:56.039Z,1.03
2022-11-26T03:37:59.651Z,1.03
2022-11-26T03:43:03.247Z,1.07
2022-11-26T03:48:08.418Z,1.03
2022-11-26T03:53:12.096Z,0.87
2022-11-26T03:58:15.712Z,0.70
2022-11-26T04:03:20.686Z,0.97
2022-11-26T04:08:24.259Z,1.03
2022-11-26T04:13:28.233Z,1.03
2022-11-26T04:18:33.089Z,0.97
2022-11-26T04:23:36.827Z,0.90
2022-11-26T04:28:40.412Z,0.83
2022-11-26T04:33:45.461Z,0.97
2022-11-26T04:38:48.985Z,0.90
2022-11-26T04:43:52.592Z,1.00
2022-11-26T04:48:57.532Z,0.77
2022-11-26T04:54:03.356Z,1.00
2022-11-26T04:59:07.758Z,0.70
2022-11-26T05:04:12.683Z,0.90
2022-11-26T05:09:16.236Z,1.10
2022-11-26T05:14:19.830Z,1.07
2022-11-26T05:19:24.803Z,0.80
2022-11-26T05:24:28.364Z,0.70
2022-11-26T05:29:32.835Z,0.83
2022-11-26T05:34:38.006Z,0.60
2022-11-26T05:39:41.810Z,0.70
2022-11-26T05:44:45.380Z,0.93
2022-11-26T05:49:50.583Z,0.60
2022-11-26T05:54:54.136Z,0.70
2022-11-26T05:59:57.846Z,0.70
2022-11-26T06:05:02.749Z,0.70
2022-11-26T06:10:07.926Z,0.80
2022-11-26T06:15:11.942Z,0.67
2022-11-26T06:20:17.238Z,0.97
2022-11-26T06:25:20.958Z,0.80
2022-11-26T06:30:24.717Z,0.70
2022-11-26T06:35:29.699Z,0.60
2022-11-26T06:40:33.232Z,0.83
2022-11-26T06:45:37.037Z,0.80
2022-11-26T06:50:41.945Z,0.50
2022-11-26T06:55:45.448Z,0.70
2022-11-26T07:00:48.901Z,0.90
2022-11-26T07:05:53.860Z,0.60
2022-11-26T07:10:57.451Z,0.50
2022-11-26T07:16:03.216Z,0.70
2022-11-26T07:21:09.951Z,0.77
2022-11-26T07:26:14.952Z,0.73
2022-11-26T07:31:21.377Z,0.70
2022-11-26T07:36:28.380Z,0.60
2022-11-26T07:41:32.015Z,0.80
2022-11-26T07:46:35.597Z,1.03
2022-11-26T07:51:40.529Z,0.70
2022-11-26T07:56:44.045Z,0.90
2022-11-26T08:01:48.178Z,1.00
2022-11-26T08:06:53.150Z,0.93
2022-11-26T08:11:56.678Z,1.10
2022-11-26T08:17:00.196Z,1.27
2022-11-26T08:22:05.142Z,1.20
2022-11-26T08:27:08.967Z,1.37
2022-11-26T08:32:12.548Z,1.20
2022-11-26T08:37:17.444Z,1.00
2022-11-26T08:42:21.035Z,0.87
2022-11-26T08:47:24.754Z,1.37
2022-11-26T08:52:29.687Z,0.90
2022-11-26T08:57:33.308Z,1.10
2022-11-26T09:02:36.863Z,1.37
2022-11-26T09:07:46.449Z,0.93
2022-11-26T09:12:52.404Z,0.83
2022-11-26T09:17:56.025Z,1.47
2022-11-26T09:23:01.079Z,1.67
2022-11-26T09:28:04.856Z,0.90
2022-11-26T09:33:08.437Z,1.40
2022-11-26T09:38:13.348Z,1.23
2022-11-26T09:43:24.024Z,1.20
2022-11-26T09:48:31.400Z,1.40
2022-11-26T09:53:40.384Z,1.83
2022-11-26T09:58:51.102Z,1.73
2022-11-26T10:03:54.725Z,1.50
2022-11-26T10:09:15.374Z,1.33
2022-11-26T10:14:31.696Z,1.60
2022-11-26T10:19:43.189Z,1.33
2022-11-26T10:24:50.750Z,1.50
2022-11-26T10:29:59.473Z,1.23
2022-11-26T10:35:03.124Z,1.37
2022-11-26T10:40:20.672Z,1.60
2022-11-26T10:45:26.560Z,1.93
2022-11-26T10:50:47.739Z,1.70
2022-11-26T10:55:54.980Z,1.93
2022-11-26T11:01:02.158Z,1.40
2022-11-26T11:06:28.825Z,1.47
2022-11-26T11:11:33.756Z,1.47
2022-11-26T11:16:41.784Z,1.70
2022-11-26T11:21:48.375Z,1.80
2022-11-26T11:26:55.175Z,2.00
2022-11-26T11:31:58.829Z,1.47
2022-11-26T11:37:03.690Z,1.60
2022-11-26T11:42:20.517Z,2.03
2022-11-26T11:47:37.208Z,1.77
2022-11-26T11:52:57.116Z,2.47
2022-11-26T11:58:18.408Z,1.57
2022-11-26T12:03:36.803Z,1.67
2022-11-26T12:08:51.688Z,1.60
2022-11-26T12:14:00.906Z,1.57
2022-11-26T12:19:12.174Z,1.90
2022-11-26T12:24:23.817Z,1.70
2022-11-26T12:29:35.888Z,2.00
2022-11-26T12:34:44.668Z,1.83
2022-11-26T12:39:54.906Z,2.20
2022-11-26T12:45:17.397Z,1.87
2022-11-26T12:50:27.342Z,1.40
2022-11-26T12:55:37.174Z,1.93
2022-11-26T13:00:42.424Z,2.10
2022-11-26T13:05:56.515Z,1.47
2022-11-26T13:11:14.825Z,1.63
2022-11-26T13:16:27.557Z,1.77
2022-11-26T13:21:57.987Z,1.37
2022-11-26T13:27:20.289Z,1.97
2022-11-26T13:32:56.050Z,1.73
2022-11-26T13:38:18.770Z,2.00
2022-11-26T13:44:12.541Z,2.03
2022-11-26T13:49:22.724Z,2.10
2022-11-26T13:54:30.527Z,2.30
2022-11-26T13:59:36.987Z,1.93
2022-11-26T14:04:55.098Z,1.63
2022-11-26T14:10:00.082Z,1.50
2022-11-26T14:15:03.884Z,2.17
2022-11-26T14:20:11.439Z,1.90
2022-11-26T14:25:16.001Z,1.83
2022-11-26T14:30:25.007Z,1.40
2022-11-26T14:35:34.626Z,1.63
2022-11-26T14:40:39.524Z,1.63
2022-11-26T14:45:44.300Z,1.53
2022-11-26T14:50:49.568Z,1.97
2022-11-26T14:55:53.895Z,2.70
2022-11-26T15:01:17.687Z,2.03
2022-11-26T15:06:27.480Z,1.87
2022-11-26T15:11:31.721Z,1.80
2022-11-26T15:16:39.404Z,1.30
2022-11-26T15:21:44.696Z,1.30
2022-11-26T15:26:48.870Z,1.30
2022-11-26T15:31:52.483Z,2.03
2022-11-26T15:36:57.727Z,1.80
2022-11-26T15:42:06.363Z,1.50
2022-11-26T15:47:20.572Z,1.80
2022-11-26T15:52:30.532Z,2.03
2022-11-26T15:57:37.054Z,1.77
2022-11-26T16:02:40.970Z,1.53
2022-11-26T16:07:58.045Z,1.10
2022-11-26T16:13:17.358Z,1.00
2022-11-26T16:18:23.477Z,1.60
2022-11-26T16:23:30.456Z,1.70
2022-11-26T16:28:33.988Z,1.40
2022-11-26T16:33:37.646Z,1.70
2022-11-26T16:38:42.612Z,1.37
2022-11-26T16:43:46.219Z,1.83
2022-11-26T16:48:51.522Z,1.90
2022-11-26T16:53:56.436Z,1.97
2022-11-26T16:59:02.510Z,2.10
2022-11-26T17:04:06.786Z,1.80
2022-11-26T17:09:18.638Z,1.20
2022-11-26T17:14:22.197Z,1.60
2022-11-26T17:19:25.775Z,1.60
2022-11-26T17:24:31.675Z,1.47
2022-11-26T17:29:41.094Z,1.40
2022-11-26T17:34:47.044Z,1.50
2022-11-26T17:39:52.080Z,2.00
2022-11-26T17:44:56.992Z,1.80
2022-11-26T17:50:00.556Z,1.83
2022-11-26T17:55:06.405Z,1.17
2022-11-26T18:00:14.390Z,1.10
2022-11-26T18:05:18.189Z,1.70
2022-11-26T18:10:24.508Z,1.43
2022-11-26T18:15:28.381Z,1.60
2022-11-26T18:20:31.948Z,1.70
2022-11-26T18:25:37.436Z,1.47
2022-11-26T18:30:41.006Z,1.53
2022-11-26T18:35:44.889Z,1.57
2022-11-26T18:40:59.958Z,1.60
2022-11-26T18:46:05.231Z,1.57
2022-11-26T18:51:09.452Z,1.30
2022-11-26T18:56:16.700Z,1.80
2022-11-26T19:01:23.417Z,2.03
2022-11-26T19:06:29.207Z,1.60
2022-11-26T19:11:35.089Z,2.23
2022-11-26T19:16:38.704Z,1.90
2022-11-26T19:21:43.006Z,1.80
2022-11-26T19:26:48.022Z,1.63
2022-11-26T19:31:51.581Z,1.53
2022-11-26T19:36:57.693Z,1.33
2022-11-26T19:42:02.910Z,1.63
2022-11-26T19:47:06.478Z,2.03
2022-11-26T19:52:10.070Z,1.97
2022-11-26T19:57:15.073Z,1.93
2022-11-26T20:02:18.636Z,2.10
2022-11-26T20:07:22.267Z,1.93
2022-11-26T20:12:27.279Z,2.80
2022-11-26T20:17:30.804Z,2.83
2022-11-26T20:22:36.993Z,2.57
2022-11-26T20:27:43.231Z,2.70
2022-11-26T20:32:49.004Z,2.27
2022-11-26T20:37:52.592Z,2.60
2022-11-26T20:42:57.578Z,2.67
2022-11-26T20:48:01.150Z,3.10
2022-11-26T20:53:04.708Z,2.87
2022-11-26T20:58:09.761Z,2.87
2022-11-26T21:03:13.361Z,2.70
2022-11-26T21:08:17.270Z,2.90
2022-11-26T21:13:22.846Z,2.10
2022-11-26T21:18:26.448Z,1.90
2022-11-26T21:23:29.975Z,2.27
2022-11-26T21:28:35.147Z,2.13
2022-11-26T21:33:38.673Z,2.10
2022-11-26T21:38:42.867Z,1.80
2022-11-26T21:43:48.900Z,2.27
2022-11-26T21:48:53.634Z,2.17
2022-11-26T21:53:58.892Z,2.30
2022-11-26T21:59:03.874Z,2.50
2022-11-26T22:04:11.376Z,2.47
2022-11-26T22:09:16.392Z,2.97
2022-11-26T22:14:21.433Z,2.40
2022-11-26T22:19:25.148Z,2.70
2022-11-26T22:24:28.809Z,2.50
2022-11-26T22:29:33.709Z,2.30
2022-11-26T22:34:37.246Z,2.33
2022-11-26T22:39:40.918Z,2.60
2022-11-26T22:44:46.054Z,2.87
2022-11-26T22:49:50.230Z,2.30
2022-11-26T22:54:53.836Z,2.40
2022-11-26T22:59:58.705Z,1.80
2022-11-26T23:05:03.217Z,2.50
2022-11-26T23:10:07.497Z,1.80
2022-11-26T23:15:12.957Z,1.70
2022-11-26T23:20:16.645Z,2.10
2022-11-26T23:25:20.192Z,2.70
2022-11-26T23:30:25.436Z,2.47
2022-11-26T23:35:29.422Z,2.20
2022-11-26T23:40:32.928Z,2.20
2022-11-26T23:45:37.817Z,2.00
2022-11-26T23:50:41.850Z,1.80
2022-11-26T23:55:45.403Z,2.20
